Time;durP1;ratioP1;P1;durP2;ratioP2;P2;SDS_P1;SDS_P2;PMS_P1;PMS_P2;Temp;Humidity;BMP_temperature;BMP_pressure;BME280_temperature;BME280_humidity;BME280_pressure;Samples;Min_cycle;Max_cycle;Signal;HPM_P1;HPM_P2
2023/11/27 00:01:43;;;;;;;1.25;0.90;;;;;;;-1.15;56.61;94607.56;5106144;28;20110;-74
2023/11/27 00:04:09;;;;;;;1.33;0.82;;;;;;;-1.09;56.98;94625.78;5107571;28;20063;-74
2023/11/27 00:06:34;;;;;;;1.98;1.15;;;;;;;-1.04;56.81;94627.34;5109620;28;20027;-74
2023/11/27 00:08:59;;;;;;;3.67;1.13;;;;;;;-0.99;56.41;94624.31;5103213;28;20024;-74
2023/11/27 00:11:25;;;;;;;1.52;1.15;;;;;;;-1.14;56.47;94631.50;5082486;28;20028;-74
2023/11/27 00:13:50;;;;;;;1.40;0.70;;;;;;;-1.20;56.70;94630.28;5109462;28;20036;-74
2023/11/27 00:16:16;;;;;;;1.60;1.17;;;;;;;-1.12;56.98;94636.50;5109226;28;20029;-74
2023/11/27 00:18:46;;;;;;;1.45;1.00;;;;;;;-1.21;56.57;94642.19;5106541;28;20115;-74
2023/11/27 00:21:14;;;;;;;1.88;0.98;;;;;;;-1.13;56.96;94646.53;5094588;28;20124;-74
2023/11/27 00:23:40;;;;;;;1.30;0.90;;;;;;;-1.18;55.68;94641.47;5109569;28;20523;-74
2023/11/27 00:26:06;;;;;;;1.90;1.23;;;;;;;-1.13;55.92;94654.63;5109388;28;20115;-74
2023/11/27 00:28:32;;;;;;;2.58;0.90;;;;;;;-1.17;55.32;94661.88;5104044;28;20059;-74
2023/11/27 00:30:57;;;;;;;2.67;1.30;;;;;;;-1.08;55.97;94651.59;5088902;28;20109;-74
2023/11/27 00:33:23;;;;;;;2.10;1.02;;;;;;;-1.13;55.87;94649.22;5100709;28;20040;-74
2023/11/27 00:35:48;;;;;;;3.15;1.10;;;;;;;-1.00;56.46;94662.47;5105718;28;20027;-74
2023/11/27 00:38:14;;;;;;;1.40;1.00;;;;;;;-0.96;56.39;94658.66;5093943;28;20030;-74
2023/11/27 00:40:39;;;;;;;3.22;1.40;;;;;;;-0.93;56.43;94667.94;5088858;28;20044;-74
2023/11/27 00:43:05;;;;;;;1.50;1.13;;;;;;;-0.86;56.29;94654.50;5077427;28;20033;-74
2023/11/27 00:45:31;;;;;;;2.50;1.20;;;;;;;-0.78;56.07;94661.53;5109095;28;20465;-74
2023/11/27 00:47:59;;;;;;;1.75;0.90;;;;;;;-0.70;55.73;94651.56;5095477;28;20028;-74
2023/11/27 00:50:25;;;;;;;1.95;1.40;;;;;;;-0.65;55.69;94665.50;5088133;28;20478;-75
2023/11/27 00:52:50;;;;;;;1.88;1.13;;;;;;;-0.57;55.39;94669.06;5088602;28;20028;-75
2023/11/27 00:55:15;;;;;;;1.55;1.27;;;;;;;-0.59;55.10;94665.94;5100613;28;20031;-75
2023/11/27 00:57:41;;;;;;;1.98;1.00;;;;;;;-0.64;54.82;94658.97;5089904;28;20042;-74
2023/11/27 01:00:08;;;;;;;2.30;1.40;;;;;;;-0.62;54.93;94680.97;5099931;28;20027;-74
2023/11/27 01:02:34;;;;;;;1.38;1.00;;;;;;;-0.60;55.25;94678.69;5079263;28;20027;-75
2023/11/27 01:04:59;;;;;;;3.30;1.30;;;;;;;-0.58;55.41;94681.00;5101934;28;20020;-74
2023/11/27 01:07:24;;;;;;;1.50;0.93;;;;;;;-0.63;55.43;94692.13;5087839;28;20031;-74
2023/11/27 01:09:51;;;;;;;2.60;1.00;;;;;;;-0.56;55.48;94694.94;5103306;28;20457;-74
2023/11/27 01:12:16;;;;;;;2.33;0.98;;;;;;;-0.52;56.22;94703.03;5105178;28;20062;-73
2023/11/27 01:14:42;;;;;;;0.90;0.77;;;;;;;-0.53;56.22;94699.56;5096331;28;20054;-74
2023/11/27 01:17:07;;;;;;;1.10;0.70;;;;;;;-0.58;56.07;94695.28;5085726;28;20118;-73
2023/11/27 01:19:34;;;;;;;2.47;1.48;;;;;;;-0.61;56.42;94692.56;5105950;28;20027;-74
2023/11/27 01:21:59;;;;;;;1.10;0.80;;;;;;;-0.60;56.57;94702.97;5108077;28;20055;-74
2023/11/27 01:24:24;;;;;;;1.15;0.85;;;;;;;-0.59;56.74;94691.03;5104835;28;20522;-74
2023/11/27 01:26:51;;;;;;;1.25;1.08;;;;;;;-0.53;56.47;94707.66;5095292;28;20080;-75
2023/11/27 01:29:17;;;;;;;1.35;1.00;;;;;;;-0.62;56.53;94699.88;5106023;28;20024;-75
2023/11/27 01:31:42;;;;;;;2.90;1.20;;;;;;;-0.64;55.75;94695.97;5104772;28;20130;-74
2023/11/27 01:34:08;;;;;;;0.85;0.80;;;;;;;-0.70;55.85;94679.34;5106401;28;20026;-73
2023/11/27 01:36:33;;;;;;;1.27;0.80;;;;;;;-0.82;55.41;94682.31;5107797;28;20339;-73
2023/11/27 01:38:58;;;;;;;1.75;0.88;;;;;;;-0.87;55.79;94686.09;5100129;28;20032;-74
2023/11/27 01:41:24;;;;;;;1.10;0.80;;;;;;;-0.84;55.62;94674.59;5066570;28;20032;-73
2023/11/27 01:43:49;;;;;;;1.08;0.65;;;;;;;-0.89;55.85;94691.09;5087586;28;20466;-74
2023/11/27 01:46:23;;;;;;;2.75;0.80;;;;;;;-0.89;55.65;94682.25;5086414;28;20444;-73
2023/11/27 01:48:49;;;;;;;;;;;;;;;-0.85;55.89;94691.94;5096512;28;20039;-74
2023/11/27 01:51:15;;;;;;;1.50;0.80;;;;;;;-0.87;55.63;94688.81;5099869;28;20441;-75
2023/11/27 01:53:41;;;;;;;0.93;0.50;;;;;;;-0.91;55.53;94693.41;5087579;28;20036;-74
2023/11/27 01:56:07;;;;;;;1.02;0.85;;;;;;;-0.88;56.04;94683.78;5099190;28;20483;-75
2023/11/27 01:58:32;;;;;;;1.17;1.05;;;;;;;-0.85;56.52;94686.53;5081224;28;20031;-74
2023/11/27 02:00:58;;;;;;;1.02;0.70;;;;;;;-0.91;56.17;94693.41;5096293;28;20405;-74
2023/11/27 02:03:23;;;;;;;2.00;0.80;;;;;;;-0.97;56.03;94704.91;5085986;28;20032;-75
2023/11/27 02:05:48;;;;;;;0.90;0.80;;;;;;;-0.98;56.48;94709.50;5098354;28;20023;-74
2023/11/27 02:08:14;;;;;;;1.00;0.90;;;;;;;-1.00;56.43;94708.31;5094943;28;20413;-73
2023/11/27 02:10:39;;;;;;;0.88;0.88;;;;;;;-0.92;56.50;94697.25;5108424;28;20074;-74
2023/11/27 02:13:04;;;;;;;1.70;0.90;;;;;;;-0.91;56.49;94717.69;5094893;28;20029;-73
2023/11/27 02:15:30;;;;;;;1.08;0.90;;;;;;;-0.90;56.64;94719.25;5086839;28;20128;-74
2023/11/27 02:17:56;;;;;;;1.63;1.00;;;;;;;-0.80;55.96;94717.81;5097581;28;20027;-74
2023/11/27 02:20:22;;;;;;;0.98;0.82;;;;;;;-0.88;55.83;94718.88;5095461;28;20036;-74
2023/11/27 02:22:47;;;;;;;1.30;0.80;;;;;;;-0.88;56.25;94718.88;5106006;28;20050;-73
2023/11/27 02:25:12;;;;;;;2.45;0.90;;;;;;;-0.88;56.54;94703.47;5100041;28;20061;-74
2023/11/27 02:27:38;;;;;;;0.95;0.80;;;;;;;-0.83;56.62;94700.44;5086652;28;20036;-73
2023/11/27 02:30:05;;;;;;;0.82;0.77;;;;;;;-0.88;56.19;94711.56;5090923;28;20120;-72
2023/11/27 02:32:30;;;;;;;2.85;1.05;;;;;;;-0.90;56.28;94713.84;5108001;28;20027;-74
2023/11/27 02:34:55;;;;;;;2.42;0.90;;;;;;;-0.86;56.68;94703.06;5096088;28;20421;-73
2023/11/27 02:37:21;;;;;;;1.13;0.93;;;;;;;-0.84;56.24;94720.47;5107641;28;20080;-73
2023/11/27 02:39:46;;;;;;;1.23;0.90;;;;;;;-0.77;56.00;94698.19;5106492;28;20059;-74
2023/11/27 02:42:12;;;;;;;2.22;1.08;;;;;;;-0.73;56.01;94698.22;5097184;28;20031;-74
2023/11/27 02:44:37;;;;;;;1.55;1.00;;;;;;;-0.74;55.45;94707.47;5077998;28;20483;-74
2023/11/27 02:47:03;;;;;;;1.00;0.70;;;;;;;-0.76;55.52;94707.81;5106526;28;20084;-74
2023/11/27 02:49:28;;;;;;;1.17;0.80;;;;;;;-0.70;55.69;94705.56;5108263;28;20035;-74
2023/11/27 02:51:54;;;;;;;1.85;1.20;;;;;;;-0.73;56.23;94701.69;5080002;28;20081;-73
2023/11/27 02:54:19;;;;;;;0.98;0.90;;;;;;;-0.67;55.63;94704.84;5088367;28;20027;-73
2023/11/27 02:56:44;;;;;;;1.02;0.90;;;;;;;-0.66;56.16;94717.19;5086599;28;20039;-73
2023/11/27 02:59:10;;;;;;;2.53;1.00;;;;;;;-0.71;56.68;94715.59;5089468;28;20031;-74
2023/11/27 03:01:35;;;;;;;1.40;1.00;;;;;;;-0.65;56.59;94721.44;5095798;28;20032;-75
2023/11/27 03:04:01;;;;;;;1.50;1.00;;;;;;;-0.61;56.75;94717.63;5096725;28;20050;-73
2023/11/27 03:06:26;;;;;;;1.77;1.10;;;;;;;-0.57;56.58;94721.16;5088136;28;20039;-75
2023/11/27 03:08:52;;;;;;;1.63;0.90;;;;;;;-0.56;56.35;94725.41;5087360;28;20470;-74
2023/11/27 03:11:17;;;;;;;1.25;0.90;;;;;;;-0.59;56.71;94720.72;5101538;28;20466;-75
2023/11/27 03:13:43;;;;;;;1.77;0.88;;;;;;;-0.57;56.82;94726.56;5100207;28;20047;-74
2023/11/27 03:16:09;;;;;;;1.65;1.02;;;;;;;-0.55;57.03;94731.56;5065759;28;20536;-74
2023/11/27 03:18:34;;;;;;;1.05;0.95;;;;;;;-0.51;57.24;94734.31;5084288;28;20032;-75
2023/11/27 03:21:00;;;;;;;1.60;1.13;;;;;;;-0.51;57.10;94740.50;5086009;28;20514;-73
2023/11/27 03:23:25;;;;;;;1.35;0.88;;;;;;;-0.49;57.15;94740.13;5088543;28;20110;-72
2023/11/27 03:25:50;;;;;;;2.05;0.95;;;;;;;-0.49;57.52;94750.91;5095413;28;20032;-73
2023/11/27 03:28:16;;;;;;;1.52;1.08;;;;;;;-0.55;57.75;94742.38;5085295;28;20162;-73
2023/11/27 03:30:43;;;;;;;1.17;1.00;;;;;;;-0.51;58.22;94731.63;5099987;28;20146;-72
2023/11/27 03:33:08;;;;;;;1.88;1.13;;;;;;;-0.48;58.56;94753.25;5106343;28;20036;-73
2023/11/27 03:35:34;;;;;;;1.50;1.10;;;;;;;-0.40;58.04;94748.69;5086136;28;20514;-73
2023/11/27 03:37:59;;;;;;;1.48;1.02;;;;;;;-0.39;58.22;94745.63;5085589;28;20042;-73
2023/11/27 03:40:25;;;;;;;2.13;1.17;;;;;;;-0.36;58.41;94739.47;5086510;28;20036;-73
2023/11/27 03:42:50;;;;;;;1.23;1.13;;;;;;;-0.36;58.47;94744.88;5065108;28;20043;-75
2023/11/27 03:45:16;;;;;;;2.15;1.10;;;;;;;-0.36;58.48;94741.41;5083582;28;20043;-74
2023/11/27 03:47:41;;;;;;;2.15;1.40;;;;;;;-0.40;58.20;94732.47;5084582;28;20028;-74
2023/11/27 03:50:07;;;;;;;1.73;0.98;;;;;;;-0.38;58.47;94749.09;5075559;28;20727;-74
2023/11/27 03:52:33;;;;;;;1.60;1.10;;;;;;;-0.38;58.70;94749.88;5102928;28;20027;-74
2023/11/27 03:54:59;;;;;;;2.63;1.25;;;;;;;-0.39;58.79;94747.56;5096759;28;20050;-74
2023/11/27 03:57:24;;;;;;;1.45;1.13;;;;;;;-0.39;58.65;94739.47;5086008;28;20498;-75
2023/11/27 03:59:50;;;;;;;2.05;1.83;;;;;;;-0.40;58.20;94741.38;5088205;28;20011;-74
2023/11/27 04:02:15;;;;;;;4.00;1.65;;;;;;;-0.44;58.50;94737.88;5078660;28;20438;-74
2023/11/27 04:04:40;;;;;;;2.83;1.40;;;;;;;-0.41;58.05;94733.63;5081742;28;20108;-75
2023/11/27 04:07:06;;;;;;;2.72;1.40;;;;;;;-0.39;57.85;94740.22;5094371;28;20071;-74
2023/11/27 04:09:32;;;;;;;2.28;1.40;;;;;;;-0.35;56.82;94742.94;5093449;28;20047;-72
2023/11/27 04:11:58;;;;;;;3.20;1.30;;;;;;;-0.35;56.75;94748.34;5067073;28;20039;-73
2023/11/27 04:14:23;;;;;;;1.85;1.20;;;;;;;-0.31;56.41;94736.44;5079630;28;20355;-73
2023/11/27 04:16:49;;;;;;;2.10;1.17;;;;;;;-0.34;56.04;94742.59;5085619;28;20073;-73
2023/11/27 04:19:14;;;;;;;1.27;0.98;;;;;;;-0.32;55.80;94737.59;5087364;28;20133;-73
2023/11/27 04:21:40;;;;;;;1.50;0.93;;;;;;;-0.32;55.46;94740.28;5087184;28;20506;-73
2023/11/27 04:24:06;;;;;;;2.58;1.40;;;;;;;-0.40;55.03;94733.28;5101580;28;20531;-73
2023/11/27 04:26:31;;;;;;;2.85;1.40;;;;;;;-0.35;55.20;94730.22;5087770;28;20035;-73
2023/11/27 04:28:57;;;;;;;2.05;1.23;;;;;;;-0.37;54.98;94742.56;5095304;28;20021;-74
2023/11/27 04:31:22;;;;;;;2.53;1.48;;;;;;;-0.39;55.24;94736.75;5090229;28;20028;-74
2023/11/27 04:33:47;;;;;;;1.80;1.20;;;;;;;-0.40;55.28;94748.69;5089603;28;20032;-74
2023/11/27 04:36:18;;;;;;;1.27;0.82;;;;;;;-0.39;55.20;94744.84;5109209;28;20122;-74
2023/11/27 04:38:43;;;;;;;1.80;1.30;;;;;;;-0.34;55.28;94753.41;5069610;28;20024;-74
2023/11/27 04:41:09;;;;;;;2.08;1.42;;;;;;;-0.35;55.59;94756.44;5065935;28;20088;-74
2023/11/27 04:43:35;;;;;;;2.05;1.38;;;;;;;-0.40;55.28;94746.78;5092592;28;20043;-74
2023/11/27 04:46:00;;;;;;;2.45;1.30;;;;;;;-0.32;55.63;94761.13;5072601;28;20161;-74
2023/11/27 04:48:26;;;;;;;2.95;1.60;;;;;;;-0.31;55.21;94763.44;5099650;28;20513;-75
2023/11/27 04:50:51;;;;;;;1.48;1.17;;;;;;;-0.39;54.91;94769.16;5099471;28;20024;-75
2023/11/27 04:53:16;;;;;;;3.00;1.40;;;;;;;-0.33;54.54;94765.75;5096718;28;20028;-75
2023/11/27 04:55:42;;;;;;;1.20;1.10;;;;;;;-0.31;54.51;94768.09;5088474;28;20043;-75
2023/11/27 04:58:07;;;;;;;2.85;0.93;;;;;;;-0.31;54.51;94774.25;5088839;28;20431;-75
2023/11/27 05:00:33;;;;;;;3.67;1.80;;;;;;;-0.35;54.92;94767.25;5096977;28;20023;-75
2023/11/27 05:03:00;;;;;;;3.47;1.60;;;;;;;-0.40;54.91;94773.00;5109735;28;20054;-74
2023/11/27 05:05:25;;;;;;;1.52;1.17;;;;;;;-0.41;55.02;94784.94;5108751;28;20089;-74
2023/11/27 05:07:50;;;;;;;1.90;1.30;;;;;;;-0.33;55.02;94779.25;5092162;28;20039;-74
2023/11/27 05:10:16;;;;;;;2.42;1.58;;;;;;;-0.30;55.16;94780.44;5091579;28;20047;-74
2023/11/27 05:12:42;;;;;;;1.85;1.17;;;;;;;-0.32;55.12;94780.81;5071552;28;20118;-74
2023/11/27 05:15:08;;;;;;;3.05;1.50;;;;;;;-0.24;54.74;94778.19;5105889;28;20059;-75
2023/11/27 05:17:33;;;;;;;3.08;1.30;;;;;;;-0.28;54.51;94789.75;5106513;28;20035;-75
2023/11/27 05:19:59;;;;;;;1.75;1.10;;;;;;;-0.32;54.54;94788.91;5097200;28;20016;-73
2023/11/27 05:22:25;;;;;;;1.70;1.25;;;;;;;-0.39;54.30;94778.03;5086151;28;20631;-74
2023/11/27 05:24:51;;;;;;;2.85;1.30;;;;;;;-0.42;54.28;94778.78;5084915;28;20024;-73
2023/11/27 05:27:16;;;;;;;3.97;2.20;;;;;;;-0.41;54.63;94780.31;5087718;28;20385;-75
2023/11/27 05:29:41;;;;;;;3.47;1.98;;;;;;;-0.43;54.76;94779.94;5088745;28;20031;-75
2023/11/27 05:32:09;;;;;;;2.88;1.30;;;;;;;-0.44;54.39;94785.69;5087006;28;20028;-74
2023/11/27 05:34:36;;;;;;;2.38;1.38;;;;;;;-0.48;54.14;94796.47;5089158;28;20036;-75
2023/11/27 05:37:02;;;;;;;2.05;1.48;;;;;;;-0.45;54.11;94789.56;5070142;28;20033;-74
2023/11/27 05:39:27;;;;;;;1.73;1.25;;;;;;;-0.65;54.18;94799.72;5100966;28;20148;-74
2023/11/27 05:41:53;;;;;;;2.92;1.60;;;;;;;-0.66;54.55;94800.88;5090280;28;20037;-74
2023/11/27 05:44:19;;;;;;;2.30;1.58;;;;;;;-0.69;54.42;94796.22;5086953;28;20103;-74
2023/11/27 05:46:45;;;;;;;2.38;1.35;;;;;;;-0.78;54.09;94812.69;5105747;28;20515;-75
2023/11/27 05:49:11;;;;;;;3.47;1.67;;;;;;;-0.76;54.20;94818.50;5102333;28;20113;-74
2023/11/27 05:51:39;;;;;;;2.08;1.27;;;;;;;-0.79;54.19;94807.69;5087456;28;20032;-75
2023/11/27 05:54:06;;;;;;;1.35;1.00;;;;;;;-0.82;54.07;94809.16;5087912;28;20023;-74
2023/11/27 05:56:32;;;;;;;2.45;1.27;;;;;;;-0.82;54.84;94831.53;5103762;28;20032;-74
2023/11/27 05:58:57;;;;;;;1.67;1.00;;;;;;;-0.79;55.03;94834.66;5090108;28;20032;-73
2023/11/27 06:01:22;;;;;;;1.70;1.20;;;;;;;-0.76;54.54;94829.28;5107337;28;20110;-75
2023/11/27 06:03:48;;;;;;;1.40;1.17;;;;;;;-0.81;54.41;94824.22;5097510;27;20406;-73
2023/11/27 06:06:13;;;;;;;4.20;1.58;;;;;;;-0.81;54.77;94819.59;5093286;28;20027;-75
2023/11/27 06:08:41;;;;;;;2.15;1.30;;;;;;;-0.88;53.87;94827.59;5098903;28;20023;-75
2023/11/27 06:11:07;;;;;;;2.67;1.45;;;;;;;-0.79;54.33;94835.44;5091160;28;20027;-75
2023/11/27 06:13:32;;;;;;;2.28;1.00;;;;;;;-0.72;53.88;94819.31;5093517;28;20031;-75
2023/11/27 06:15:58;;;;;;;3.42;1.77;;;;;;;-0.79;53.27;94813.84;5072914;28;20037;-75
2023/11/27 06:18:24;;;;;;;2.13;1.40;;;;;;;-0.79;53.63;94811.16;5083174;28;20543;-75
2023/11/27 06:20:49;;;;;;;1.55;1.15;;;;;;;-0.87;53.46;94818.34;5108549;28;20028;-75
2023/11/27 06:23:14;;;;;;;3.08;1.25;;;;;;;-0.81;53.41;94814.19;5091070;28;20471;-75
2023/11/27 06:25:40;;;;;;;2.17;1.33;;;;;;;-0.72;53.26;94823.94;5093846;28;20055;-74
2023/11/27 06:28:07;;;;;;;2.10;1.20;;;;;;;-0.61;52.95;94831.03;5091995;28;20035;-74
2023/11/27 06:30:33;;;;;;;2.10;1.40;;;;;;;-0.72;52.20;94830.13;5102869;28;20032;-74
2023/11/27 06:32:59;;;;;;;2.55;1.17;;;;;;;-0.61;52.01;94835.66;5095744;28;20035;-75
2023/11/27 06:35:24;;;;;;;2.25;1.10;;;;;;;-0.64;51.68;94836.38;5097245;28;20024;-74
2023/11/27 06:37:50;;;;;;;0.50;0.43;;;;;;;-0.73;50.97;94850.19;5093390;28;20035;-74
2023/11/27 06:40:16;;;;;;;1.02;0.77;;;;;;;-0.72;50.97;94854.41;5087139;28;20020;-74
2023/11/27 06:42:42;;;;;;;2.00;1.20;;;;;;;-0.64;51.81;94866.09;5087047;28;20039;-74
2023/11/27 06:45:09;;;;;;;3.60;1.00;;;;;;;-0.58;51.19;94867.31;5105932;28;20030;-75
2023/11/27 06:47:34;;;;;;;1.10;0.70;;;;;;;-0.58;50.74;94878.88;5105161;28;20036;-74
2023/11/27 06:49:59;;;;;;;2.80;1.50;;;;;;;-0.41;51.05;94872.16;5090501;28;20047;-74
2023/11/27 06:52:25;;;;;;;1.08;0.75;;;;;;;-0.23;50.66;94876.97;5087443;28;20210;-74
2023/11/27 06:54:51;;;;;;;2.08;1.00;;;;;;;-0.18;50.04;94873.97;5087430;28;20028;-74
2023/11/27 06:57:16;;;;;;;2.20;1.20;;;;;;;-0.19;50.28;94881.28;5086086;28;20031;-75
2023/11/27 06:59:42;;;;;;;2.33;1.08;;;;;;;0.01;49.90;94886.53;5087774;28;20474;-74
2023/11/27 07:02:07;;;;;;;2.17;1.00;;;;;;;0.11;49.98;94897.44;5086492;28;20116;-74
2023/11/27 07:04:33;;;;;;;1.65;1.10;;;;;;;0.19;49.15;94901.78;5087731;28;20103;-74
2023/11/27 07:06:58;;;;;;;2.20;1.40;;;;;;;0.30;49.26;94914.63;5086477;28;20024;-74
2023/11/27 07:09:24;;;;;;;1.50;0.82;;;;;;;0.45;48.47;94908.19;5087893;28;20120;-75
2023/11/27 07:11:53;;;;;;;1.83;1.00;;;;;;;0.55;47.87;94907.53;5085070;28;20102;-74
2023/11/27 07:14:18;;;;;;;2.25;0.60;;;;;;;0.64;47.01;94907.22;5086141;28;20079;-74
2023/11/27 07:16:44;;;;;;;2.95;0.70;;;;;;;0.75;46.35;94913.50;5087168;28;20063;-74
2023/11/27 07:19:12;;;;;;;2.92;1.17;;;;;;;0.87;46.43;94913.22;5086761;28;20059;-74
2023/11/27 07:21:38;;;;;;;2.65;1.10;;;;;;;1.03;46.63;94921.06;5087345;28;20055;-74
2023/11/27 07:24:03;;;;;;;2.55;1.42;;;;;;;1.21;46.31;94907.66;5085154;28;20028;-74
2023/11/27 07:26:29;;;;;;;2.80;1.55;;;;;;;1.41;46.19;94922.47;5086503;28;20024;-73
2023/11/27 07:28:55;;;;;;;4.85;1.50;;;;;;;1.50;45.72;94916.75;5084518;28;20082;-73
2023/11/27 07:31:21;;;;;;;2.72;1.63;;;;;;;1.77;45.42;94920.72;5087340;28;20135;-73
2023/11/27 07:33:46;;;;;;;1.63;1.00;;;;;;;2.19;43.71;94913.94;5068609;28;20604;-73
2023/11/27 07:36:11;;;;;;;1.77;1.20;;;;;;;2.56;42.71;94918.25;5085568;28;20501;-73
2023/11/27 07:38:38;;;;;;;2.55;1.23;;;;;;;2.89;41.79;94903.56;5086013;28;20036;-74
2023/11/27 07:41:06;;;;;;;1.23;0.90;;;;;;;3.50;39.91;94903.47;5084632;28;20043;-73
2023/11/27 07:43:32;;;;;;;2.10;1.17;;;;;;;4.12;37.71;94917.25;5086214;28;20046;-72
2023/11/27 07:45:58;;;;;;;2.72;1.63;;;;;;;5.35;37.38;94912.56;5084530;28;20502;-73
2023/11/27 07:48:23;;;;;;;2.95;1.60;;;;;;;6.98;34.80;94907.06;5087197;28;20039;-72
2023/11/27 07:50:50;;;;;;;3.25;1.33;;;;;;;8.33;32.32;94919.53;5086116;28;20020;-72
2023/11/27 07:53:18;;;;;;;3.03;1.30;;;;;;;9.47;30.27;94920.53;5087185;28;20498;-73
2023/11/27 07:55:44;;;;;;;2.50;1.42;;;;;;;10.35;28.58;94913.91;5085791;28;20021;-73
2023/11/27 07:58:09;;;;;;;2.28;1.48;;;;;;;11.21;27.65;94916.06;5085888;28;20483;-72
2023/11/27 08:00:34;;;;;;;3.45;1.88;;;;;;;12.09;26.55;94919.88;5087258;28;20467;-73
2023/11/27 08:03:00;;;;;;;2.95;1.60;;;;;;;12.74;25.77;94916.34;5085671;28;20056;-72
2023/11/27 08:05:27;;;;;;;3.90;1.80;;;;;;;13.33;24.36;94911.72;5091325;28;20474;-72
2023/11/27 08:07:53;;;;;;;3.80;2.15;;;;;;;14.02;24.09;94916.75;5089636;28;20158;-73
2023/11/27 08:10:18;;;;;;;1.58;1.40;;;;;;;14.39;23.18;94905.69;5089777;28;20106;-72
2023/11/27 08:12:44;;;;;;;2.20;1.45;;;;;;;14.95;22.38;94909.16;5090218;28;20030;-73
2023/11/27 08:15:17;;;;;;;4.60;1.90;;;;;;;15.51;22.05;94902.16;5088920;28;20031;-72
2023/11/27 08:17:42;;;;;;;;;;;;;;;16.05;21.24;94908.63;5090272;28;20063;-72
2023/11/27 08:20:10;;;;;;;3.90;2.22;;;;;;;15.97;20.86;94899.13;5088291;28;19974;-72
2023/11/27 08:22:36;;;;;;;4.38;2.38;;;;;;;16.50;20.25;94906.72;5097770;28;20043;-77
2023/11/27 08:25:02;;;;;;;3.67;2.03;;;;;;;16.80;20.09;94896.44;5074683;28;20016;-77
2023/11/27 08:27:27;;;;;;;2.75;1.60;;;;;;;16.76;20.00;94891.09;5072585;28;20034;-75
2023/11/27 08:29:53;;;;;;;2.90;1.70;;;;;;;17.17;19.22;94905.13;5089258;28;20176;-73
2023/11/27 08:32:19;;;;;;;2.65;1.35;;;;;;;17.83;18.80;94909.41;5091279;28;20068;-72
2023/11/27 08:34:44;;;;;;;2.50;1.45;;;;;;;18.22;17.96;94915.47;5090496;28;20024;-71
2023/11/27 08:37:16;;;;;;;2.17;1.10;;;;;;;18.44;18.34;94907.38;5089574;28;20024;-71
2023/11/27 08:39:42;;;;;;;1.95;1.40;;;;;;;18.83;17.92;94918.22;5089149;28;20411;-76
2023/11/27 08:42:07;;;;;;;2.72;1.55;;;;;;;19.07;17.42;94924.25;5100698;28;20092;-73
2023/11/27 08:44:32;;;;;;;4.18;2.20;;;;;;;19.39;17.22;94927.06;5098432;28;20027;-73
2023/11/27 08:46:58;;;;;;;3.67;2.17;;;;;;;20.03;17.17;94931.31;5089239;28;20020;-72
2023/11/27 08:49:23;;;;;;;5.07;2.65;;;;;;;20.22;17.05;94934.44;5088739;28;20028;-72
2023/11/27 08:51:49;;;;;;;5.38;3.25;;;;;;;20.41;16.66;94932.75;5088667;28;20089;-71
2023/11/27 08:54:14;;;;;;;4.85;2.15;;;;;;;20.77;16.54;94926.81;5089198;28;20046;-72
2023/11/27 08:56:43;;;;;;;2.60;1.75;;;;;;;21.05;16.05;94930.41;5088985;28;20068;-72
2023/11/27 08:59:09;;;;;;;4.47;2.20;;;;;;;21.20;16.09;94930.16;5088600;28;20107;-72
2023/11/27 09:01:34;;;;;;;3.47;1.60;;;;;;;21.54;15.85;94928.16;5071832;28;20169;-72
2023/11/27 09:04:00;;;;;;;3.08;1.67;;;;;;;21.67;15.36;94936.03;5101249;28;20417;-72
2023/11/27 09:06:25;;;;;;;3.75;1.65;;;;;;;21.58;15.41;94925.13;5108705;28;20111;-72
2023/11/27 09:08:52;;;;;;;2.88;1.67;;;;;;;21.83;16.15;94926.09;5104554;28;20020;-71
2023/11/27 09:11:17;;;;;;;3.95;2.10;;;;;;;21.91;15.27;94916.69;5096777;28;20104;-71
2023/11/27 09:13:43;;;;;;;2.25;1.58;;;;;;;22.09;15.21;94928.59;5095101;28;20093;-71
2023/11/27 09:16:09;;;;;;;3.10;1.55;;;;;;;22.58;15.11;94926.13;5100887;28;20688;-72
2023/11/27 09:18:34;;;;;;;3.22;2.05;;;;;;;22.52;14.85;94914.97;5095133;28;20024;-71
2023/11/27 09:21:00;;;;;;;3.50;2.15;;;;;;;22.85;15.04;94907.66;5096667;28;20159;-71
2023/11/27 09:23:25;;;;;;;3.75;1.88;;;;;;;22.18;15.17;94894.72;5088370;28;20137;-71
2023/11/27 09:25:50;;;;;;;3.40;1.90;;;;;;;21.91;14.98;94885.91;5086944;28;20031;-72
2023/11/27 09:28:16;;;;;;;5.82;2.22;;;;;;;22.13;14.81;94884.31;5107775;28;20040;-73
2023/11/27 09:30:41;;;;;;;6.40;2.40;;;;;;;22.29;14.84;94875.09;5098926;28;20253;-73
2023/11/27 09:33:07;;;;;;;5.57;1.75;;;;;;;22.71;14.73;94873.09;5089146;28;20434;-74
2023/11/27 09:35:32;;;;;;;5.10;1.80;;;;;;;22.88;14.89;94882.22;5089399;28;20024;-75
2023/11/27 09:37:57;;;;;;;2.42;1.63;;;;;;;22.20;14.97;94869.81;5087978;28;20379;-74
2023/11/27 09:40:23;;;;;;;3.20;1.70;;;;;;;22.72;14.80;94871.81;5089329;28;20034;-74
2023/11/27 09:42:49;;;;;;;2.40;1.15;;;;;;;22.98;14.58;94872.19;5088434;28;20123;-72
2023/11/27 09:45:18;;;;;;;2.33;1.20;;;;;;;23.13;14.18;94868.25;5098977;28;20073;-78
2023/11/27 09:47:48;;;;;;;2.67;1.10;;;;;;;23.32;14.32;94877.53;5070549;28;20028;-78
2023/11/27 09:50:13;;;;;;;1.85;1.15;;;;;;;23.09;14.01;94873.38;5080414;28;20031;-71
2023/11/27 09:52:59;;;;;;;2.58;1.05;;;;;;;22.39;14.37;94875.56;5108382;28;20365;-74
2023/11/27 09:55:26;;;;;;;1.88;0.98;;;;;;;22.74;14.09;94880.47;5095932;28;20470;-76
2023/11/27 09:57:52;;;;;;;1.70;1.00;;;;;;;22.94;14.12;94866.13;5104339;28;20130;-71
2023/11/27 10:00:18;;;;;;;2.33;1.35;;;;;;;23.38;13.58;94874.69;5095799;28;20032;-76
2023/11/27 10:02:48;;;;;;;3.55;1.60;;;;;;;23.66;13.83;94866.03;5100784;28;20118;-70
2023/11/27 10:05:18;;;;;;;2.83;1.40;;;;;;;23.65;13.38;94864.53;5087581;28;20387;-72
2023/11/27 10:07:49;;;;;;;1.65;0.98;;;;;;;24.22;12.56;94871.81;5073016;28;20591;-77
2023/11/27 10:10:24;;;;;;;2.55;1.20;;;;;;;24.48;12.74;94867.69;5090815;28;20024;-76
2023/11/27 10:12:49;;;;;;;1.90;1.10;;;;;;;24.09;13.09;94866.84;5088296;28;20032;-76
2023/11/27 10:15:15;;;;;;;2.00;1.10;;;;;;;24.41;12.99;94871.84;5087173;28;20024;-74
2023/11/27 10:17:42;;;;;;;1.13;0.60;;;;;;;24.36;12.43;94855.81;5087054;28;21457;-73
2023/11/27 10:20:12;;;;;;;2.38;1.20;;;;;;;24.41;12.66;94854.25;5086904;28;20508;-75
2023/11/27 10:22:40;;;;;;;2.33;1.00;;;;;;;24.59;12.45;94847.88;5086529;28;20101;-76
2023/11/27 10:25:07;;;;;;;1.42;0.70;;;;;;;24.42;12.34;94848.09;5087593;28;20111;-74
2023/11/27 10:27:33;;;;;;;1.05;0.65;;;;;;;24.76;12.15;94856.06;5086355;28;20024;-76
2023/11/27 10:30:00;;;;;;;2.03;0.98;;;;;;;25.12;12.77;94851.72;5085305;28;20016;-76
2023/11/27 10:32:27;;;;;;;1.55;0.80;;;;;;;25.59;12.38;94856.06;5086668;28;20035;-76
2023/11/27 10:34:53;;;;;;;2.00;1.20;;;;;;;26.04;12.12;94846.81;5068551;28;20024;-75
2023/11/27 10:37:18;;;;;;;1.83;0.80;;;;;;;26.24;11.61;94842.59;5086701;28;20039;-76
2023/11/27 10:39:48;;;;;;;1.63;0.70;;;;;;;25.83;11.84;94843.88;5069122;28;20024;-77
2023/11/27 10:42:14;;;;;;;3.67;1.55;;;;;;;25.28;12.65;94851.97;5085749;28;20119;-76
2023/11/27 10:44:44;;;;;;;2.92;1.65;;;;;;;24.52;13.05;94832.38;5070192;28;20116;-77
2023/11/27 10:47:10;;;;;;;3.60;2.00;;;;;;;23.96;13.71;94826.66;5086498;28;20019;-77
2023/11/27 10:49:42;;;;;;;3.63;1.80;;;;;;;23.70;13.47;94821.63;5098097;28;20035;-75
2023/11/27 10:52:09;;;;;;;2.10;0.90;;;;;;;23.18;13.24;94817.00;5096674;28;20020;-76
2023/11/27 10:54:35;;;;;;;4.47;2.13;;;;;;;22.69;14.02;94820.38;5086547;28;20042;-76
2023/11/27 10:57:06;;;;;;;3.72;1.90;;;;;;;22.70;14.34;94813.50;5085574;28;20028;-75
2023/11/27 10:59:33;;;;;;;2.42;1.35;;;;;;;22.75;13.89;94823.13;5069063;28;20498;-77
2023/11/27 11:02:02;;;;;;;3.45;1.90;;;;;;;22.83;14.58;94828.97;5087605;28;20354;-76
2023/11/27 11:04:50;;;;;;;4.75;2.33;;;;;;;23.08;14.10;94824.97;5085182;28;20657;-77
2023/11/27 11:07:19;;;;;;;1.98;1.10;;;;;;;23.36;13.96;94826.78;5091230;28;20035;-77
2023/11/27 11:09:48;;;;;;;3.53;1.20;;;;;;;23.81;13.54;94815.88;5085000;28;20508;-78
2023/11/27 11:12:20;;;;;;;2.20;1.17;;;;;;;24.76;13.06;94814.66;5087461;28;20512;-76
2023/11/27 11:14:46;;;;;;;1.48;1.05;;;;;;;26.37;12.20;94811.56;5089699;28;20043;-72
2023/11/27 11:17:19;;;;;;;2.35;1.40;;;;;;;27.64;11.35;94828.88;5100333;28;20552;-72
2023/11/27 11:20:18;;;;;;;2.50;1.08;;;;;;;28.34;10.77;94824.47;5101258;28;20032;-90
2023/11/27 11:23:17;;;;;;;2.55;1.05;;;;;;;28.47;10.40;94804.56;5063281;28;20056;-73
2023/11/27 11:25:56;;;;;;;1.60;0.95;;;;;;;28.33;10.21;94800.31;5075671;28;20094;-71
2023/11/27 11:28:31;;;;;;;1.65;0.70;;;;;;;28.39;10.13;94798.88;5084652;28;20504;-78
2023/11/27 11:31:15;;;;;;;0.80;0.65;;;;;;;28.48;9.84;94794.75;5083568;28;20135;-71